Time;durP1;ratioP1;P1;durP2;ratioP2;P2;SDS_P1;SDS_P2;PMS_P1;PMS_P2;Temp;Humidity;BMP_temperature;BMP_pressure;BME280_temperature;BME280_humidity;BME280_pressure;Samples;Min_cycle;Max_cycle;Signal;HPM_P1;HPM_P2
2022/03/10 00:00:59;;;;;;;;;;;10.90;99.90;;;;;;6127954;23;19921;-90
2022/03/10 00:03:26;;;;;;;;;;;10.80;99.90;;;;;;6127431;23;20004;-89
2022/03/10 00:05:53;;;;;;;;;;;10.90;99.90;;;;;;6127408;23;19921;-89
2022/03/10 00:08:19;;;;;;;;;;;11.00;99.90;;;;;;6127782;23;19924;-90
2022/03/10 00:10:46;;;;;;;;;;;11.20;99.90;;;;;;6127787;23;19924;-92
2022/03/10 00:13:17;;;;;;;;;;;11.20;99.90;;;;;;6127678;23;19921;-90
2022/03/10 00:15:44;;;;;;;;;;;11.00;99.90;;;;;;6127300;23;19921;-91
2022/03/10 00:18:11;;;;;;;;;;;11.00;99.90;;;;;;6127471;23;19928;-90
2022/03/10 00:20:42;;;;;;;;;;;11.40;99.90;;;;;;6127930;23;19921;-90
2022/03/10 00:23:08;;;;;;;;;;;11.20;99.90;;;;;;6127385;23;19921;-90
2022/03/10 00:25:37;;;;;;;;;;;11.00;99.90;;;;;;6127314;23;19940;-91
2022/03/10 00:28:05;;;;;;;;;;;10.80;99.90;;;;;;6127088;23;20328;-89
2022/03/10 00:30:33;;;;;;;;;;;10.90;99.90;;;;;;6127426;23;20340;-89
2022/03/10 00:33:00;;;;;;;;;;;11.00;99.90;;;;;;6127623;23;20312;-90
2022/03/10 00:35:27;;;;;;;;;;;11.00;99.90;;;;;;6127454;23;19931;-89
2022/03/10 00:37:54;;;;;;;;;;;11.10;99.90;;;;;;6127478;23;19921;-90
2022/03/10 00:40:21;;;;;;;;;;;9.70;99.90;;;;;;6127523;23;19927;-88
2022/03/10 00:42:48;;;;;;;;;;;11.00;99.90;;;;;;6126899;23;20296;-89
2022/03/10 00:45:16;;;;;;;;;;;11.30;99.90;;;;;;6127508;23;19925;-89
2022/03/10 00:47:47;;;;;;;;;;;11.20;99.90;;;;;;6126640;23;19925;-88
2022/03/10 00:50:15;;;;;;;;;;;9.70;99.90;;;;;;6127376;23;19976;-90
2022/03/10 00:52:42;;;;;;;;;;;11.00;99.90;;;;;;6126820;23;19921;-89
2022/03/10 00:55:11;;;;;;;;;;;11.00;99.90;;;;;;6127023;23;19924;-89
2022/03/10 00:57:38;;;;;;;;;;;11.00;99.90;;;;;;6126441;23;19921;-89
2022/03/10 01:00:06;;;;;;;;;;;11.00;99.90;;;;;;6127433;23;19979;-91
2022/03/10 01:02:34;;;;;;;;;;;11.00;99.90;;;;;;6126901;23;20300;-89
2022/03/10 01:05:02;;;;;;;;;;;10.90;99.90;;;;;;6126813;23;19958;-89
2022/03/10 01:07:30;;;;;;;;;;;11.00;99.90;;;;;;6126533;23;19921;-89
2022/03/10 01:09:57;;;;;;;;;;;10.30;99.90;;;;;;6127195;23;19995;-89
2022/03/10 01:12:24;;;;;;;;;;;11.00;99.90;;;;;;6127538;23;20228;-90
2022/03/10 01:14:51;;;;;;;;;;;11.00;99.90;;;;;;6127391;23;19928;-90
2022/03/10 01:17:18;;;;;;;;;;;10.90;99.90;;;;;;6127366;23;19928;-90
2022/03/10 01:19:46;;;;;;;;;;;10.90;99.90;;;;;;6127649;23;20420;-89
2022/03/10 01:22:14;;;;;;;;;;;10.90;99.90;;;;;;6126641;23;19967;-91
2022/03/10 01:24:41;;;;;;;;;;;10.80;99.90;;;;;;6127581;23;19925;-89
2022/03/10 01:27:08;;;;;;;;;;;10.80;99.90;;;;;;6127906;23;19943;-89
2022/03/10 01:29:35;;;;;;;;;;;11.10;99.90;;;;;;6127424;23;19921;-90
2022/03/10 01:32:02;;;;;;;;;;;10.90;99.90;;;;;;6128128;23;19925;-90
2022/03/10 01:34:28;;;;;;;;;;;10.80;99.90;;;;;;6127331;23;19925;-89
2022/03/10 01:36:55;;;;;;;;;;;10.80;99.90;;;;;;6128056;23;20438;-89
2022/03/10 01:39:24;;;;;;;;;;;11.00;99.90;;;;;;6127293;23;19925;-89
2022/03/10 01:41:51;;;;;;;;;;;11.30;99.90;;;;;;6127412;23;19921;-90
2022/03/10 01:44:20;;;;;;;;;;;10.70;99.90;;;;;;6127067;23;20046;-88
2022/03/10 01:46:47;;;;;;;;;;;11.80;99.90;;;;;;6127462;23;19931;-90
2022/03/10 01:49:15;;;;;;;;;;;10.80;99.90;;;;;;6127669;23;20260;-87
2022/03/10 01:51:42;;;;;;;;;;;10.60;99.90;;;;;;6127614;23;20396;-90
2022/03/10 01:54:09;;;;;;;;;;;10.60;99.90;;;;;;6127808;23;19968;-88
2022/03/10 01:56:39;;;;;;;;;;;10.70;99.90;;;;;;6127774;23;19934;-89
2022/03/10 01:59:06;;;;;;;;;;;10.60;99.90;;;;;;6126869;23;19944;-91
2022/03/10 02:01:34;;;;;;;;;;;10.70;99.90;;;;;;6127361;23;19945;-89
2022/03/10 02:04:01;;;;;;;;;;;10.80;99.90;;;;;;6127099;23;19948;-90
2022/03/10 02:06:29;;;;;;;;;;;10.50;99.90;;;;;;6127024;23;19968;-89
2022/03/10 02:11:41;;;;;;;;;;;10.60;99.90;;;;;;6126720;23;19980;-89
2022/03/10 02:19:35;;;;;;;;;;;10.50;99.90;;;;;;6128875;23;19924;-89
2022/03/10 02:22:07;;;;;;;;;;;10.30;99.90;;;;;;6129013;23;20419;-89
2022/03/10 02:24:37;;;;;;;;;;;10.40;99.90;;;;;;6128946;23;19921;-89
2022/03/10 02:27:12;;;;;;;;;;;10.20;99.90;;;;;;6128705;23;20251;-89
2022/03/10 02:29:41;;;;;;;;;;;10.20;99.90;;;;;;6128685;23;20003;-89
2022/03/10 02:32:07;;;;;;;;;;;11.00;99.90;;;;;;6129222;23;20304;-88
2022/03/10 02:34:34;;;;;;;;;;;10.20;99.90;;;;;;6128537;23;19921;-89
2022/03/10 02:37:01;;;;;;;;;;;10.00;99.90;;;;;;6129032;23;19920;-89
2022/03/10 02:39:29;;;;;;;;;;;10.00;99.90;;;;;;6128816;23;19988;-89
2022/03/10 02:41:56;;;;;;;;;;;10.10;99.90;;;;;;6130155;23;19932;-87
2022/03/10 02:44:24;;;;;;;;;;;10.10;99.90;;;;;;6139010;23;19944;-85
2022/03/10 02:46:51;;;;;;;;;;;10.00;99.90;;;;;;6139164;23;19933;-86
2022/03/10 02:49:17;;;;;;;;;;;9.90;99.90;;;;;;6130732;23;19937;-88
2022/03/10 02:51:44;;;;;;;;;;;9.90;99.90;;;;;;6130125;23;19920;-90
2022/03/10 02:54:11;;;;;;;;;;;9.90;99.90;;;;;;6129110;23;19976;-89
2022/03/10 02:56:41;;;;;;;;;;;9.90;99.90;;;;;;6122404;23;19984;-89
2022/03/10 02:59:07;;;;;;;;;;;9.90;99.90;;;;;;6128728;23;19931;-89
2022/03/10 03:01:34;;;;;;;;;;;10.10;99.90;;;;;;6128304;23;19928;-89
2022/03/10 03:04:01;;;;;;;;;;;10.30;99.90;;;;;;6128870;23;19928;-90
2022/03/10 03:06:28;;;;;;;;;;;9.90;99.90;;;;;;6128669;23;19925;-89
2022/03/10 03:08:55;;;;;;;;;;;9.80;99.90;;;;;;6128398;23;19921;-90
2022/03/10 03:11:22;;;;;;;;;;;10.10;99.90;;;;;;6128075;23;19975;-90
2022/03/10 03:13:50;;;;;;;;;;;9.90;99.90;;;;;;6127961;23;19921;-90
2022/03/10 03:16:17;;;;;;;;;;;9.70;99.90;;;;;;6128919;23;20241;-89
2022/03/10 03:18:44;;;;;;;;;;;10.00;99.90;;;;;;6129049;23;19921;-90
2022/03/10 03:21:11;;;;;;;;;;;10.00;99.90;;;;;;6128825;23;20399;-90
2022/03/10 03:23:38;;;;;;;;;;;9.90;99.90;;;;;;6127772;23;19929;-90
2022/03/10 03:26:08;;;;;;;;;;;10.00;99.90;;;;;;6128293;23;20239;-89
2022/03/10 03:28:34;;;;;;;;;;;9.90;99.90;;;;;;6128210;23;19963;-89
2022/03/10 03:31:03;;;;;;;;;;;10.30;99.90;;;;;;6128229;23;19924;-90
2022/03/10 03:33:30;;;;;;;;;;;10.10;99.90;;;;;;6128368;23;19921;-87
2022/03/10 03:35:57;;;;;;;;;;;9.90;99.90;;;;;;6127816;23;19932;-90
2022/03/10 03:38:24;;;;;;;;;;;9.80;99.90;;;;;;6128150;23;19921;-88
2022/03/10 03:40:51;;;;;;;;;;;9.80;99.90;;;;;;6128510;23;19955;-89
2022/03/10 03:43:18;;;;;;;;;;;9.80;99.90;;;;;;6128052;23;19925;-89
2022/03/10 03:45:45;;;;;;;;;;;9.00;99.90;;;;;;6127715;23;19927;-89
2022/03/10 03:48:13;;;;;;;;;;;9.80;99.90;;;;;;6127732;23;19976;-88
2022/03/10 03:50:40;;;;;;;;;;;9.70;99.90;;;;;;6128062;23;19921;-88
2022/03/10 03:53:07;;;;;;;;;;;9.70;99.90;;;;;;6128259;23;19925;-88
2022/03/10 03:55:34;;;;;;;;;;;9.70;99.90;;;;;;6127720;23;19928;-89
2022/03/10 03:58:05;;;;;;;;;;;9.70;99.90;;;;;;6127997;23;20324;-88
2022/03/10 04:00:32;;;;;;;;;;;9.50;99.90;;;;;;6128141;23;19937;-88
2022/03/10 04:03:06;;;;;;;;;;;10.10;99.90;;;;;;6128052;23;20304;-87
2022/03/10 04:05:34;;;;;;;;;;;9.70;99.90;;;;;;6128491;23;19924;-89
2022/03/10 04:08:01;;;;;;;;;;;9.80;99.90;;;;;;6127700;23;19921;-89
2022/03/10 04:10:28;;;;;;;;;;;9.90;99.90;;;;;;6127828;23;19947;-89
2022/03/10 04:12:54;;;;;;;;;;;9.60;99.90;;;;;;6127791;23;20004;-89
2022/03/10 04:15:21;;;;;;;;;;;10.00;99.90;;;;;;6127943;23;19928;-89
2022/03/10 04:17:48;;;;;;;;;;;9.70;99.90;;;;;;6128364;23;20237;-90
2022/03/10 04:20:15;;;;;;;;;;;9.60;99.90;;;;;;6127835;23;19925;-90
2022/03/10 04:22:43;;;;;;;;;;;9.60;99.90;;;;;;6127860;23;20336;-89
2022/03/10 04:25:10;;;;;;;;;;;9.60;99.90;;;;;;6128376;23;20358;-91
2022/03/10 04:27:37;;;;;;;;;;;9.60;99.90;;;;;;6123082;23;19921;-89
2022/03/10 04:30:05;;;;;;;;;;;9.70;99.90;;;;;;6128119;23;19924;-91
2022/03/10 04:32:39;;;;;;;;;;;10.00;99.90;;;;;;6128058;23;19928;-90
2022/03/10 04:35:07;;;;;;;;;;;9.80;99.90;;;;;;6127649;23;19924;-89
2022/03/10 04:37:37;;;;;;;;;;;10.60;99.90;;;;;;6127856;23;19949;-91
2022/03/10 04:40:06;;;;;;;;;;;10.50;99.90;;;;;;6127413;23;19921;-90
2022/03/10 04:42:33;;;;;;;;;;;10.00;99.90;;;;;;6127740;23;19921;-90
2022/03/10 04:45:00;;;;;;;;;;;10.20;99.90;;;;;;6127483;23;19921;-92
2022/03/10 04:47:27;;;;;;;;;;;10.10;99.90;;;;;;6126768;23;19930;-92
2022/03/10 04:49:54;;;;;;;;;;;10.10;99.90;;;;;;6127693;23;19921;-90
2022/03/10 04:52:21;;;;;;;;;;;10.20;99.90;;;;;;6127972;23;19949;-90
2022/03/10 04:54:47;;;;;;;;;;;10.20;99.90;;;;;;6127498;23;19925;-90
2022/03/10 04:57:16;;;;;;;;;;;10.20;99.90;;;;;;6127281;23;19928;-92
2022/03/10 04:59:42;;;;;;;;;;;10.30;99.90;;;;;;6126797;23;20021;-90
2022/03/10 05:02:09;;;;;;;;;;;10.60;99.90;;;;;;6126380;23;19921;-89
2022/03/10 05:04:36;;;;;;;;;;;10.70;99.90;;;;;;6127039;23;19921;-91
2022/03/10 05:07:04;;;;;;;;;;;10.60;99.90;;;;;;6127790;23;19928;-91
2022/03/10 05:09:31;;;;;;;;;;;10.20;99.90;;;;;;6127689;23;19921;-89
2022/03/10 05:11:57;;;;;;;;;;;10.30;99.90;;;;;;6127144;23;19936;-89
2022/03/10 05:14:26;;;;;;;;;;;10.20;99.90;;;;;;6127293;23;19921;-90
2022/03/10 05:16:53;;;;;;;;;;;10.10;99.90;;;;;;6127688;23;19929;-91
2022/03/10 05:19:19;;;;;;;;;;;11.10;99.90;;;;;;6127251;23;20344;-90
2022/03/10 05:21:46;;;;;;;;;;;10.10;99.90;;;;;;6127229;23;19928;-89
2022/03/10 05:24:13;;;;;;;;;;;10.10;99.90;;;;;;6127091;23;19921;-91
2022/03/10 05:26:40;;;;;;;;;;;10.20;99.90;;;;;;6127170;23;20256;-89
2022/03/10 05:29:07;;;;;;;;;;;10.00;99.90;;;;;;6127321;23;19921;-88
2022/03/10 05:31:35;;;;;;;;;;;10.10;99.90;;;;;;6127448;23;19928;-89
2022/03/10 05:34:03;;;;;;;;;;;10.40;99.90;;;;;;6127006;23;19988;-88
2022/03/10 05:36:29;;;;;;;;;;;9.90;99.90;;;;;;6126809;23;19921;-89
2022/03/10 05:38:58;;;;;;;;;;;9.90;99.90;;;;;;6126988;23;20000;-89
2022/03/10 05:41:25;;;;;;;;;;;10.40;99.90;;;;;;6126991;23;20383;-89
2022/03/10 05:43:51;;;;;;;;;;;9.90;99.90;;;;;;6127661;23;20300;-90
2022/03/10 05:46:20;;;;;;;;;;;10.00;99.90;;;;;;6127278;23;19932;-88
2022/03/10 05:48:48;;;;;;;;;;;9.90;99.90;;;;;;6127859;23;19921;-88
2022/03/10 05:51:15;;;;;;;;;;;9.60;99.90;;;;;;6128759;23;19976;-89
2022/03/10 05:53:42;;;;;;;;;;;9.80;99.90;;;;;;6128976;23;19921;-89
2022/03/10 05:56:09;;;;;;;;;;;9.90;99.90;;;;;;6130011;23;20248;-89
2022/03/10 05:58:38;;;;;;;;;;;9.90;99.90;;;;;;6129165;23;19925;-88
2022/03/10 06:01:05;;;;;;;;;;;9.70;99.90;;;;;;6128746;23;19921;-88
2022/03/10 06:03:32;;;;;;;;;;;9.80;99.90;;;;;;6129335;23;19929;-89
2022/03/10 06:06:00;;;;;;;;;;;9.80;99.90;;;;;;6128580;23;19925;-89
2022/03/10 06:08:30;;;;;;;;;;;9.80;99.90;;;;;;6129132;23;19984;-88
2022/03/10 06:10:57;;;;;;;;;;;9.80;99.90;;;;;;6128878;23;19921;-88
2022/03/10 06:13:24;;;;;;;;;;;9.90;99.90;;;;;;6129267;23;19925;-88
2022/03/10 06:15:50;;;;;;;;;;;10.10;99.90;;;;;;6129272;23;19921;-90
2022/03/10 06:18:17;;;;;;;;;;;10.10;99.90;;;;;;6132407;23;19976;-89
2022/03/10 06:20:44;;;;;;;;;;;10.40;99.90;;;;;;6131376;23;19972;-88
2022/03/10 06:23:12;;;;;;;;;;;10.30;99.90;;;;;;6128929;23;20281;-88
2022/03/10 06:25:39;;;;;;;;;;;10.70;99.90;;;;;;6128264;23;19992;-88
2022/03/10 06:28:06;;;;;;;;;;;10.80;99.90;;;;;;6128313;23;20242;-89
2022/03/10 06:30:34;;;;;;;;;;;10.60;99.90;;;;;;6136585;23;19944;-87
2022/03/10 06:33:03;;;;;;;;;;;10.60;99.90;;;;;;6133103;23;19928;-89
2022/03/10 06:35:29;;;;;;;;;;;10.80;99.90;;;;;;6129428;23;20048;-88
2022/03/10 06:37:56;;;;;;;;;;;10.90;99.90;;;;;;6128700;23;19976;-88
2022/03/10 06:40:24;;;;;;;;;;;10.70;99.90;;;;;;6128900;23;19921;-88
2022/03/10 06:42:51;;;;;;;;;;;10.70;99.90;;;;;;6128661;23;19968;-88
2022/03/10 06:45:18;;;;;;;;;;;10.70;99.90;;;;;;6128980;23;19925;-87
2022/03/10 06:47:45;;;;;;;;;;;10.70;99.90;;;;;;6128138;23;19921;-89
2022/03/10 06:50:14;;;;;;;;;;;10.90;99.90;;;;;;6128830;23;19924;-88
2022/03/10 06:52:41;;;;;;;;;;;10.90;99.90;;;;;;6128719;23;19921;-90
2022/03/10 06:55:08;;;;;;;;;;;10.90;99.90;;;;;;6128116;23;20329;-90
2022/03/10 06:57:36;;;;;;;;;;;10.50;99.90;;;;;;6127864;23;20316;-91
2022/03/10 07:00:05;;;;;;;;;;;10.60;99.90;;;;;;6128790;23;19921;-90
2022/03/10 07:02:31;;;;;;;;;;;10.70;99.90;;;;;;6128191;23;19921;-90
2022/03/10 07:04:58;;;;;;;;;;;10.60;99.90;;;;;;6127805;23;19980;-90
2022/03/10 07:07:25;;;;;;;;;;;10.70;99.90;;;;;;6129010;23;19921;-90
2022/03/10 07:09:52;;;;;;;;;;;10.70;99.90;;;;;;6127370;23;19921;-89
2022/03/10 07:12:19;;;;;;;;;;;10.80;99.90;;;;;;6127988;23;19947;-90
2022/03/10 07:14:47;;;;;;;;;;;10.80;99.90;;;;;;6128713;23;19936;-89
2022/03/10 07:17:14;;;;;;;;;;;10.80;99.90;;;;;;6129045;23;19920;-90
2022/03/10 07:19:41;;;;;;;;;;;10.90;99.90;;;;;;6130068;23;19921;-91
2022/03/10 07:22:08;;;;;;;;;;;10.90;99.90;;;;;;6129204;23;20285;-91
2022/03/10 07:24:35;;;;;;;;;;;10.90;99.90;;;;;;6128867;23;19921;-90
2022/03/10 07:27:02;;;;;;;;;;;10.30;99.90;;;;;;6127792;23;19999;-90
2022/03/10 07:29:29;;;;;;;;;;;11.00;99.90;;;;;;6127534;23;19932;-89
2022/03/10 07:31:58;;;;;;;;;;;11.40;99.90;;;;;;6129001;23;19920;-90
2022/03/10 07:34:25;;;;;;;;;;;10.70;99.90;;;;;;6128663;23;19927;-90
2022/03/10 07:36:54;;;;;;;;;;;11.10;99.90;;;;;;6128777;23;19928;-89
2022/03/10 07:39:22;;;;;;;;;;;11.20;99.90;;;;;;6128283;23;19921;-89
2022/03/10 07:41:48;;;;;;;;;;;11.20;99.90;;;;;;6128548;23;19925;-90
2022/03/10 07:44:15;;;;;;;;;;;11.30;99.90;;;;;;6129334;23;19921;-90
2022/03/10 07:46:45;;;;;;;;;;;11.10;99.90;;;;;;6128072;23;19921;-90
2022/03/10 07:49:17;;;;;;;;;;;13.90;99.90;;;;;;6128978;23;19921;-90
2022/03/10 07:51:45;;;;;;;;;;;11.70;99.90;;;;;;6131134;23;19925;-88
2022/03/10 07:54:12;;;;;;;;;;;11.30;99.90;;;;;;6131270;23;19927;-87
2022/03/10 07:56:39;;;;;;;;;;;11.30;99.90;;;;;;6130600;23;19927;-89
2022/03/10 07:59:05;;;;;;;;;;;11.30;99.90;;;;;;6128396;23;19928;-90
2022/03/10 08:01:32;;;;;;;;;;;11.30;99.90;;;;;;6131215;23;19921;-91
2022/03/10 08:03:59;;;;;;;;;;;11.90;99.90;;;;;;6128329;23;19931;-87
2022/03/10 08:06:27;;;;;;;;;;;11.70;99.90;;;;;;6132733;23;19925;-90
2022/03/10 08:08:55;;;;;;;;;;;11.60;99.90;;;;;;6130498;23;19943;-91
2022/03/10 08:11:21;;;;;;;;;;;11.80;99.90;;;;;;6130166;23;19921;-88
2022/03/10 08:13:48;;;;;;;;;;;11.70;99.90;;;;;;6131553;23;20796;-91
2022/03/10 08:16:17;;;;;;;;;;;11.60;99.90;;;;;;6133192;23;19921;-89
2022/03/10 08:18:47;;;;;;;;;;;11.60;99.90;;;;;;6128968;23;22213;-90
2022/03/10 08:21:13;;;;;;;;;;;11.80;99.90;;;;;;6130705;23;19963;-90
2022/03/10 08:23:42;;;;;;;;;;;11.50;99.90;;;;;;6119427;23;19932;-92
2022/03/10 08:26:09;;;;;;;;;;;11.70;99.90;;;;;;6116833;23;19921;-90
2022/03/10 08:28:36;;;;;;;;;;;11.70;99.90;;;;;;6129907;23;19921;-89
2022/03/10 08:31:05;;;;;;;;;;;12.20;99.90;;;;;;6133692;23;19932;-92
2022/03/10 08:33:32;;;;;;;;;;;12.00;99.90;;;;;;6129572;23;19921;-88
2022/03/10 08:35:59;;;;;;;;;;;11.70;99.90;;;;;;6134998;23;19924;-88
2022/03/10 08:38:29;;;;;;;;;;;11.80;99.90;;;;;;6132465;23;20337;-89
2022/03/10 08:40:57;;;;;;;;;;;11.70;99.90;;;;;;6131510;23;19921;-88
2022/03/10 08:43:29;;;;;;;;;;;11.80;99.90;;;;;;6132433;23;19921;-88
2022/03/10 08:45:58;;;;;;;;;;;12.10;99.90;;;;;;6131393;23;20024;-88
2022/03/10 08:48:26;;;;;;;;;;;11.80;99.90;;;;;;6132277;23;19948;-88
2022/03/10 08:51:07;;;;;;;;;;;11.70;99.90;;;;;;6132804;23;19921;-88
2022/03/10 08:53:34;;;;;;;;;;;12.00;99.90;;;;;;6132483;23;19921;-88
2022/03/10 08:56:02;;;;;;;;;;;11.90;99.90;;;;;;6132877;23;19925;-90
2022/03/10 08:58:29;;;;;;;;;;;11.90;99.90;;;;;;6122192;23;19932;-86
2022/03/10 09:00:59;;;;;;;;;;;12.00;99.90;;;;;;6098728;23;19931;-89
2022/03/10 09:03:28;;;;;;;;;;;11.70;99.90;;;;;;6131679;23;19920;-86
2022/03/10 09:05:57;;;;;;;;;;;12.10;99.90;;;;;;6096863;23;20253;-90
2022/03/10 09:08:30;;;;;;;;;;;12.20;99.90;;;;;;6101929;23;19999;-90
2022/03/10 09:11:00;;;;;;;;;;;12.90;99.90;;;;;;6128950;23;19921;-88
2022/03/10 09:13:30;;;;;;;;;;;12.20;99.90;;;;;;6130620;23;19921;-87
2022/03/10 09:15:57;;;;;;;;;;;12.60;99.90;;;;;;6128251;23;19921;-87
2022/03/10 09:18:24;;;;;;;;;;;12.20;99.90;;;;;;6131458;23;19932;-89
2022/03/10 09:21:09;;;;;;;;;;;10.60;99.90;;;;;;6128186;23;19921;-91
2022/03/10 09:23:37;;;;;;;;;;;12.20;99.90;;;;;;6101682;23;19921;-91
2022/03/10 09:26:04;;;;;;;;;;;12.10;99.90;;;;;;6135740;23;20332;-92
2022/03/10 09:28:36;;;;;;;;;;;12.60;99.90;;;;;;6131744;23;19952;-88
2022/03/10 09:31:10;;;;;;;;;;;10.70;99.90;;;;;;6132464;23;19921;-91
2022/03/10 09:33:50;;;;;;;;;;;;;;;;;;;;;
2022/03/10 09:36:42;;;;;;;;;;;12.10;99.90;;;;;;6127030;23;19992;-90
2022/03/10 09:39:11;;;;;;;;;;;12.30;99.90;;;;;;6044984;23;19921;-90
2022/03/10 09:41:53;;;;;;;;;;;12.70;99.90;;;;;;6129749;23;19928;-92
2022/03/10 09:44:31;;;;;;;;;;;12.70;99.90;;;;;;6132418;23;20011;-87
2022/03/10 09:47:03;;;;;;;;;;;13.10;99.90;;;;;;6131846;23;19925;-92
2022/03/10 09:49:33;;;;;;;;;;;12.70;99.90;;;;;;6129597;23;19921;-90
2022/03/10 09:52:04;;;;;;;;;;;12.80;99.90;;;;;;6128800;23;19924;-89
2022/03/10 09:54:35;;;;;;;;;;;12.10;99.90;;;;;;6113260;23;19944;-92
2022/03/10 09:57:03;;;;;;;;;;;10.70;99.90;;;;;;6109223;23;19995;-92
2022/03/10 09:59:32;;;;;;;;;;;10.80;99.90;;;;;;6127679;23;19925;-91
2022/03/10 10:04:44;;;;;;;;;;;12.40;99.90;;;;;;6118248;23;19927;-90
2022/03/10 10:07:25;;;;;;;;;;;12.80;99.90;;;;;;6130780;23;19928;-88
2022/03/10 10:09:55;;;;;;;;;;;12.90;99.90;;;;;;6103730;23;19975;-86
2022/03/10 10:12:29;;;;;;;;;;;12.80;99.90;;;;;;6135301;23;19941;-89
2022/03/10 10:15:00;;;;;;;;;;;13.10;99.90;;;;;;6134715;23;20268;-87
2022/03/10 10:17:29;;;;;;;;;;;14.30;99.90;;;;;;6124937;23;19948;-90
2022/03/10 10:19:57;;;;;;;;;;;12.70;99.90;;;;;;6128989;23;20032;-88
2022/03/10 10:22:28;;;;;;;;;;;12.90;99.90;;;;;;6127105;23;19921;-88
2022/03/10 10:24:57;;;;;;;;;;;13.30;99.90;;;;;;6130550;23;19928;-92
2022/03/10 10:27:26;;;;;;;;;;;13.40;99.90;;;;;;6130817;23;19921;-90
2022/03/10 10:29:55;;;;;;;;;;;13.10;99.90;;;;;;6131702;23;20397;-90
2022/03/10 10:32:30;;;;;;;;;;;12.90;99.90;;;;;;6133404;23;19932;-87
2022/03/10 10:35:01;;;;;;;;;;;12.60;99.90;;;;;;6133693;23;19921;-88
2022/03/10 10:37:31;;;;;;;;;;;12.30;99.90;;;;;;6104751;23;19921;-89
2022/03/10 10:39:58;;;;;;;;;;;12.90;99.90;;;;;;6128752;23;19921;-87
2022/03/10 10:42:29;;;;;;;;;;;11.90;99.90;;;;;;6131075;23;19920;-89
2022/03/10 10:44:56;;;;;;;;;;;13.10;99.90;;;;;;6131481;23;19948;-87
2022/03/10 10:47:26;;;;;;;;;;;13.60;99.90;;;;;;6127539;23;20370;-89
2022/03/10 10:49:58;;;;;;;;;;;13.00;99.90;;;;;;6134174;23;19937;-90
2022/03/10 10:52:25;;;;;;;;;;;13.20;99.90;;;;;;6132348;23;19929;-85
2022/03/10 10:55:09;;;;;;;;;;;13.00;99.90;;;;;;6133476;23;20109;-88
2022/03/10 10:57:36;;;;;;;;;;;13.00;99.90;;;;;;6133204;23;20028;-83
2022/03/10 11:00:05;;;;;;;;;;;12.90;99.90;;;;;;6131111;23;19988;-88
2022/03/10 11:02:32;;;;;;;;;;;13.00;99.90;;;;;;6132893;23;19952;-87
2022/03/10 11:05:14;;;;;;;;;;;13.00;99.90;;;;;;6132800;23;19925;-87
2022/03/10 11:07:44;;;;;;;;;;;13.90;99.90;;;;;;6136617;23;19933;-87
2022/03/10 11:10:16;;;;;;;;;;;14.60;99.90;;;;;;6138152;23;19993;-87
2022/03/10 11:12:44;;;;;;;;;;;14.00;99.90;;;;;;6138157;23;20008;-87
2022/03/10 11:15:13;;;;;;;;;;;13.10;99.90;;;;;;6137067;23;19921;-87
2022/03/10 11:17:41;;;;;;;;;;;13.20;99.90;;;;;;6137067;23;19921;-88
2022/03/10 11:20:10;;;;;;;;;;;12.70;99.90;;;;;;6131558;23;19968;-90
2022/03/10 11:22:51;;;;;;;;;;;13.10;99.90;;;;;;6134845;23;19925;-91
2022/03/10 11:25:33;;;;;;;;;;;13.10;99.90;;;;;;6134298;23;19993;-86
2022/03/10 11:28:08;;;;;;;;;;;13.70;99.90;;;;;;6141181;23;20358;-87
2022/03/10 11:30:37;;;;;;;;;;;13.30;99.90;;;;;;6138332;23;19938;-87
2022/03/10 11:33:05;;;;;;;;;;;15.30;99.90;;;;;;6135327;23;19921;-88
2022/03/10 11:35:42;;;;;;;;;;;13.30;99.90;;;;;;6135918;23;19941;-92
2022/03/10 11:38:09;;;;;;;;;;;13.80;99.90;;;;;;6129778;23;19925;-89
2022/03/10 11:40:40;;;;;;;;;;;13.50;99.90;;;;;;6135441;23;19996;-93
2022/03/10 11:43:09;;;;;;;;;;;13.50;99.90;;;;;;6135730;23;19932;-91
2022/03/10 11:45:42;;;;;;;;;;;14.10;99.90;;;;;;6138502;23;19928;-92
2022/03/10 11:51:19;;;;;;;;;;;13.70;99.90;;;;;;6088409;23;19961;-88
2022/03/10 11:53:59;;;;;;;;;;;13.40;99.90;;;;;;6142897;23;19941;-87
2022/03/10 11:56:55;;;;;;;;;;;13.80;99.90;;;;;;6141253;23;19921;-89
2022/03/10 11:59:35;;;;;;;;;;;14.00;99.90;;;;;;6138944;23;19996;-90
2022/03/10 12:02:35;;;;;;;;;;;13.00;99.90;;;;;;6138703;23;19921;-90
2022/03/10 12:05:03;;;;;;;;;;;13.20;99.90;;;;;;6104372;23;19928;-87
2022/03/10 12:07:34;;;;;;;;;;;13.90;99.90;;;;;;6140952;23;20332;-92
2022/03/10 12:10:13;;;;;;;;;;;14.10;99.90;;;;;;6140911;23;19964;-86
2022/03/10 12:12:42;;;;;;;;;;;13.90;99.90;;;;;;6139359;23;20000;-89
2022/03/10 12:18:29;;;;;;;;;;;15.50;99.90;;;;;;6129518;23;19921;-90
2022/03/10 12:20:58;;;;;;;;;;;13.80;99.90;;;;;;6130553;23;19995;-90
2022/03/10 12:23:37;;;;;;;;;;;14.20;99.90;;;;;;6134358;23;19945;-89
2022/03/10 12:26:07;;;;;;;;;;;14.50;99.90;;;;;;6107498;23;20001;-92
2022/03/10 12:28:37;;;;;;;;;;;14.60;99.90;;;;;;6100278;23;20340;-89
2022/03/10 12:31:16;;;;;;;;;;;14.00;99.90;;;;;;6099286;23;19921;-92
2022/03/10 12:33:49;;;;;;;;;;;13.40;99.90;;;;;;6102751;23;20309;-91
2022/03/10 12:36:24;;;;;;;;;;;14.20;99.90;;;;;;6104754;23;19988;-91
2022/03/10 12:38:53;;;;;;;;;;;14.50;99.90;;;;;;6106164;23;19922;-88
2022/03/10 12:41:29;;;;;;;;;;;14.50;99.90;;;;;;6104558;23;19921;-92
2022/03/10 12:46:41;;;;;;;;;;;16.40;99.90;;;;;;6095288;23;19921;-90
2022/03/10 12:49:21;;;;;;;;;;;14.30;99.90;;;;;;6104270;23;19945;-91
2022/03/10 12:51:50;;;;;;;;;;;14.90;99.90;;;;;;6104073;23;19922;-89
2022/03/10 12:54:25;;;;;;;;;;;14.90;99.90;;;;;;6105893;23;19968;-92
2022/03/10 12:57:03;;;;;;;;;;;14.40;99.90;;;;;;6104066;23;19922;-91
2022/03/10 13:02:30;;;;;;;;;;;14.50;99.90;;;;;;6114605;23;19921;-92
2022/03/10 13:08:12;;;;;;;;;;;14.00;99.90;;;;;;6096865;23;19927;-89
2022/03/10 13:10:48;;;;;;;;;;;14.10;99.90;;;;;;6134725;23;19921;-88
2022/03/10 13:13:33;;;;;;;;;;;14.80;99.90;;;;;;6132698;23;19928;-89
2022/03/10 13:16:37;;;;;;;;;;;;;;;;;;;;;
2022/03/10 13:19:28;;;;;;;;;;;14.50;99.90;;;;;;6130744;23;19927;-91
2022/03/10 13:21:58;;;;;;;;;;;14.60;99.90;;;;;;6119786;23;19996;-91
2022/03/10 13:24:55;;;;;;;;;;;12.90;99.90;;;;;;6136132;23;19965;-91
2022/03/10 13:27:27;;;;;;;;;;;14.30;99.90;;;;;;6112016;23;20004;-91
2022/03/10 13:29:54;;;;;;;;;;;15.20;99.90;;;;;;6130961;23;19931;-89
2022/03/10 13:32:23;;;;;;;;;;;14.10;99.90;;;;;;6120407;23;19925;-87
2022/03/10 13:34:51;;;;;;;;;;;14.30;99.90;;;;;;6110730;23;19921;-89
2022/03/10 13:37:22;;;;;;;;;;;13.10;99.90;;;;;;6104338;23;19921;-89
2022/03/10 13:39:54;;;;;;;;;;;13.20;99.90;;;;;;6102258;23;19992;-89
2022/03/10 13:42:43;;;;;;;;;;;;;;;;;;;;;
2022/03/10 13:47:56;;;;;;;;;;;14.50;99.90;;;;;;6126053;23;19927;-88
2022/03/10 13:50:27;;;;;;;;;;;14.50;99.90;;;;;;6130657;23;19921;-89
2022/03/10 13:52:57;;;;;;;;;;;15.40;99.90;;;;;;6117060;23;19921;-89
2022/03/10 13:55:34;;;;;;;;;;;15.10;99.90;;;;;;6131818;23;19921;-86
2022/03/10 13:58:04;;;;;;;;;;;14.60;99.90;;;;;;6129214;23;19925;-86
2022/03/10 14:00:33;;;;;;;;;;;14.60;99.90;;;;;;6131879;23;19921;-86
2022/03/10 14:03:08;;;;;;;;;;;14.20;99.90;;;;;;6138614;23;19988;-88
2022/03/10 14:05:48;;;;;;;;;;;13.10;99.90;;;;;;6135958;23;19968;-88
2022/03/10 14:08:17;;;;;;;;;;;15.30;99.90;;;;;;6130294;23;19924;-90
2022/03/10 14:10:46;;;;;;;;;;;14.80;99.90;;;;;;6137086;23;19952;-89
2022/03/10 14:13:17;;;;;;;;;;;14.60;99.90;;;;;;6133896;23;19940;-90
2022/03/10 14:15:47;;;;;;;;;;;14.90;99.90;;;;;;6131537;23;19929;-90
2022/03/10 14:18:18;;;;;;;;;;;14.50;99.90;;;;;;6128924;23;19928;-89
2022/03/10 14:20:46;;;;;;;;;;;15.30;99.90;;;;;;6132213;23;19929;-90
2022/03/10 14:23:16;;;;;;;;;;;15.00;99.90;;;;;;6132580;23;19921;-91
2022/03/10 14:25:58;;;;;;;;;;;14.60;99.90;;;;;;6133967;23;19921;-91
2022/03/10 14:28:31;;;;;;;;;;;14.70;99.90;;;;;;6126312;23;19932;-90
2022/03/10 14:31:04;;;;;;;;;;;13.00;99.90;;;;;;6134160;23;19921;-89
2022/03/10 14:33:32;;;;;;;;;;;14.80;99.90;;;;;;6129584;23;19945;-89
2022/03/10 14:36:00;;;;;;;;;;;12.70;99.90;;;;;;6115177;23;19940;-90
2022/03/10 14:38:30;;;;;;;;;;;14.50;99.90;;;;;;6105017;23;20056;-86
2022/03/10 14:40:57;;;;;;;;;;;14.70;99.90;;;;;;6129863;23;19984;-85
2022/03/10 14:43:24;;;;;;;;;;;14.90;99.90;;;;;;6132290;23;19925;-85
2022/03/10 14:45:51;;;;;;;;;;;15.20;99.90;;;;;;6121412;23;19987;-87
2022/03/10 14:48:21;;;;;;;;;;;15.50;99.90;;;;;;6131722;23;19932;-87
2022/03/10 14:50:49;;;;;;;;;;;15.70;99.90;;;;;;6133112;23;20007;-89
2022/03/10 14:53:16;;;;;;;;;;;15.80;99.90;;;;;;6134159;23;19932;-88
2022/03/10 14:55:57;;;;;;;;;;;15.70;99.90;;;;;;6133167;23;19921;-83
2022/03/10 14:58:26;;;;;;;;;;;15.60;99.90;;;;;;6130431;23;20000;-88
2022/03/10 15:00:53;;;;;;;;;;;15.60;99.90;;;;;;6132072;23;19921;-87
2022/03/10 15:03:20;;;;;;;;;;;15.30;99.90;;;;;;6135358;23;20328;-86